Detalii statie ROAGROLTAL [00001D0B]

Toti senzorii

Date Temperatura solului [C]Precipitatii [mm]Voltaj baterie [mV]Leaf Wetness [Min]HC Air temperature [C]HC Relative humidity [%]Punctul de roua [C]
medieminmaxsumaultimatimpmedieminmaxmediemediemin
2020-01-25 15:00:00 0.6 0.4 0.8 0 7254 10.07 9.36 10.75 85.25 7.5 4.9
2020-01-25 16:00:00 1 0.8 1.2 0 7246 10.07 8.53 10.8 88.42 8 6.4
2020-01-25 17:00:00 1.2 1.1 1.3 0 7186 6.6 4.21 8.6 83.25 3.6 -2.4
2020-01-25 18:00:00 1.2 1.1 1.3 0 7080 1.72 0.64 3.49 67.43 -3.6 -4.4
2020-01-25 19:00:00 1 1 1.2 0 7000 0.53 -1.02 1.64 73.11 -3.7 -4.6
2020-01-25 20:00:00 0.9 0.9 1 0 6922 -0.98 -1.41 -0.7 76.95 -4.4 -4.9
2020-01-25 21:00:00 0.8 0.7 1 0 6874 -1.21 -1.72 -0.63 77.7 -4.5 -5
2020-01-25 22:00:00 0.7 0.6 0.8 0 6834 -1.33 -2.02 -0.83 78.7 -4.4 -4.9
2020-01-25 23:00:00 0.6 0.6 0.7 0 6844 -2.06 -2.75 -1.35 82.37 -4.5 -5.2
2020-01-26 00:00:00 0.5 0.4 0.7 0 6844 -2.89 -3.34 -2.54 88.07 -4.5 -4.9
2020-01-26 01:00:00 0.4 0.4 0.7 0 6816 -3.62 -4.14 -3.14 91.53 -4.7 -5.2
2020-01-26 02:00:00 0.4 0.3 0.5 0 6826 -3.58 -4.68 -2.97 92.38 -4.5 -5.3
2020-01-26 03:00:00 0.3 0.3 0.4 0 6806 -4.78 -5.24 -4.44 96.86 -5.1 -5.4
2020-01-26 04:00:00 0.3 0.3 0.4 0 6806 -4.9 -5.33 -4.58 98.55 -5 -5.2
2020-01-26 05:00:00 0.3 0.2 0.4 0 6786 -5.3 -5.71 -4.92 100 -5.1 -5.6
2020-01-26 06:00:00 0.2 0.2 0.3 0 6766 -5.07 -5.57 -4.68 100 -4.9 -5.4
2020-01-26 07:00:00 0.2 0.1 0.3 0 6776 -4.08 -4.49 -3.69 100 -3.9 -4.3
2020-01-26 08:00:00 0.1 0 0.2 0 6766 -3.86 -4.17 -3.33 100 -3.7 -4
2020-01-26 09:00:00 0.2 0 0.3 0 7020 -2.29 -3.78 -1.05 98.6 -2.3 -3.6
2020-01-26 10:00:00 0.1 0.1 0.3 0 7264 0.44 -0.91 1.8 90.17 -0.9 -1.2
2020-01-26 11:00:00 0.1 0 0.3 0 7264 4.3 2.51 5.79 71.57 -0.4 -0.7
2020-01-26 12:00:00 0.1 0.1 0.2 0 7264 6.11 5.35 6.61 62.83 -0.4 -0.9
2020-01-26 13:00:00 0.2 0.1 0.4 0 7254 7.8 6.85 8.53 56.33 -0.4 -0.8
2020-01-26 14:00:00 0.4 0.3 0.7 0 7254 9.3 8.83 9.79 50.93 -0.4 -0.6
2020-01-26 15:00:00 0.8 0.7 1.1 0 7264 9.91 9.66 10.15 47.65 -0.8 -1.2
2020-01-26 16:00:00 1.2 1 1.4 0 7254 9.43 9.07 9.77 49.23 -0.7 -1.1
2020-01-26 17:00:00 1.4 1.3 1.5 0 7186 7.49 5.47 8.9 56.35 -0.7 -1
2020-01-26 18:00:00 1.3 1.2 1.5 0 7080 3.29 1.85 5.4 70.65 -1.5 -1.9
2020-01-26 19:00:00 1.2 1.1 1.4 0 6992 1.23 0.4 1.97 81.2 -1.6 -2
2020-01-26 20:00:00 1 0.9 1.1 0 6914 0 -0.58 0.84 88.81 -1.5 -2.1
2020-01-26 21:00:00 0.9 0.8 1.1 0 6864 0.26 -0.46 1.08 90.36 -1.1 -1.5
2020-01-26 22:00:00 0.8 0.7 1 0 6834 1.39 0.94 2 80.71 -1.5 -2.2
2020-01-26 23:00:00 0.7 0.6 0.9 0 6834 1.03 0.64 1.51 81.01 -1.8 -2.3
2020-01-27 00:00:00 0.6 0.5 0.7 0 6816 0.54 0.26 0.98 89.91 -0.9 -2.1
2020-01-27 01:00:00 0.6 0.5 0.8 0 6806 0.78 0.13 1.19 99.64 0.6 0.1
2020-01-27 02:00:00 0.5 0.5 0.6 0 6806 -1.03 -2.66 0.38 100 -0.9 -2.5
2020-01-27 03:00:00 0.5 0.4 0.6 0 6806 -2.96 -3.29 -2.69 100 -2.8 -3.1
2020-01-27 04:00:00 0.4 0.4 0.6 0 6796 -3.26 -3.62 -2.98 100 -3.1 -3.5
2020-01-27 05:00:00 0.4 0.4 0.5 0 6766 -3.18 -3.47 -2.57 100 -3 -3.3
2020-01-27 06:00:00 0.3 0.3 0.5 0 6766 -2.67 -3.54 -2.03 100 -2.5 -3.4
2020-01-27 07:00:00 0.3 0.2 0.4 0 6756 -4.04 -4.68 -3.57 100 -3.8 -4.5
2020-01-27 08:00:00 0.3 0.1 0.4 0 6748 -5.1 -5.46 -4.87 100 -4.9 -5.3
2020-01-27 09:00:00 0.3 0.2 0.4 0 6932 -4.07 -4.72 -2.95 100 -3.9 -4.6
2020-01-27 10:00:00 0.3 0.2 0.4 0 7274 -1.42 -2.36 -0.75 83.33 -1.1 0
2020-01-27 11:00:00 0.3 0.2 0.4 0 7274 -0.1 -0.86 0.81 0 0 0
2020-01-27 12:00:00 0.3 0.3 0.4 0 7254 1.34 0.97 1.97 0 0 0
2020-01-27 13:00:00 0.5 0.4 0.7 0 7264 2.36 1.74 3.59 0 0 0
2020-01-27 14:00:00 0.8 0.6 0.9 0 7254 4.77 3.63 5.49 0 0 0